Time;durP1;ratioP1;P1;durP2;ratioP2;P2;SDS_P1;SDS_P2;PMS_P1;PMS_P2;Temp;Humidity;BMP_temperature;BMP_pressure;BME280_temperature;BME280_humidity;BME280_pressure;Samples;Min_cycle;Max_cycle;Signal;HPM_P1;HPM_P2
2022/06/12 00:00:29;;;;;;;14.75;3.90;;;13.60;96.70;;;;;;5013053;28;20432;-54
2022/06/12 00:02:56;;;;;;;14.35;4.57;;;13.60;96.80;;;;;;5012005;28;20026;-50
2022/06/12 00:05:25;;;;;;;13.55;4.30;;;13.60;96.70;;;;;;5013336;28;20033;-51
2022/06/12 00:07:51;;;;;;;14.02;4.50;;;13.60;96.60;;;;;;5012648;28;20099;-54
2022/06/12 00:10:17;;;;;;;13.00;4.13;;;13.50;96.50;;;;;;5013008;28;20076;-53
2022/06/12 00:12:44;;;;;;;19.40;5.03;;;13.50;96.50;;;;;;5012759;28;20061;-50
2022/06/12 00:15:13;;;;;;;16.55;4.97;;;13.50;96.60;;;;;;5012798;28;20030;-48
2022/06/12 00:17:41;;;;;;;;;;;13.40;96.70;;;;;;5012850;28;20504;-51
2022/06/12 00:20:08;;;;;;;11.77;4.20;;;13.40;96.80;;;;;;5012796;28;19909;-50
2022/06/12 00:22:35;;;;;;;13.82;4.63;;;13.30;96.50;;;;;;5012539;28;20033;-44
2022/06/12 00:25:01;;;;;;;12.15;4.00;;;13.20;96.50;;;;;;5012724;28;20139;-50
2022/06/12 00:27:26;;;;;;;8.00;3.80;;;13.10;96.40;;;;;;5012565;28;20635;-49
2022/06/12 00:29:52;;;;;;;8.40;3.40;;;13.10;96.40;;;;;;5012499;28;20026;-49
2022/06/12 00:32:18;;;;;;;9.20;3.45;;;13.00;96.20;;;;;;5012517;28;20182;-55
2022/06/12 00:34:52;;;;;;;9.68;4.10;;;13.00;96.50;;;;;;5012465;28;20021;-51
2022/06/12 00:37:21;;;;;;;10.25;3.72;;;12.90;96.30;;;;;;5012404;28;20047;-53
2022/06/12 00:39:49;;;;;;;7.70;3.77;;;12.90;96.40;;;;;;5012343;28;20057;-48
2022/06/12 00:42:27;;;;;;;11.32;3.83;;;12.90;96.50;;;;;;5012251;28;20691;-51
2022/06/12 00:44:55;;;;;;;9.35;3.75;;;12.80;96.50;;;;;;5011864;28;20041;-51
2022/06/12 00:47:22;;;;;;;10.68;3.40;;;12.80;96.50;;;;;;5011915;28;20377;-53
2022/06/12 00:50:05;;;;;;;13.02;3.40;;;12.80;96.40;;;;;;5012167;28;20069;-54
2022/06/12 00:52:41;;;;;;;10.10;3.78;;;12.70;96.40;;;;;;5010970;28;20030;-45
2022/06/12 00:55:14;;;;;;;11.52;4.32;;;12.70;96.40;;;;;;5012185;28;20037;-49
2022/06/12 00:57:40;;;;;;;14.18;5.38;;;12.60;96.50;;;;;;4997723;28;20520;-50
2022/06/12 01:00:13;;;;;;;18.85;6.43;;;12.60;96.50;;;;;;5012238;28;20026;-55
2022/06/12 01:02:40;;;;;;;23.55;7.15;;;12.50;96.80;;;;;;5012008;28;20026;-51
2022/06/12 01:07:58;;;;;;;16.13;6.05;;;12.40;97.40;;;;;;4998310;28;20048;-54
2022/06/12 01:10:28;;;;;;;18.50;7.43;;;12.40;97.70;;;;;;5011995;28;20040;-56
2022/06/12 01:13:05;;;;;;;16.63;6.80;;;12.30;97.80;;;;;;5011303;28;20108;-57
2022/06/12 01:15:36;;;;;;;20.95;7.22;;;12.40;98.00;;;;;;5011846;28;20087;-52
2022/06/12 01:18:05;;;;;;;17.25;7.05;;;12.40;97.80;;;;;;5011644;28;20552;-54
2022/06/12 01:20:37;;;;;;;17.95;6.95;;;12.40;97.70;;;;;;5011810;28;20025;-47
2022/06/12 01:23:39;;;;;;;17.95;6.47;;;12.40;97.70;;;;;;5011489;28;20029;-45
2022/06/12 01:26:14;;;;;;;17.05;5.85;;;12.40;97.80;;;;;;4989227;28;20044;-48
2022/06/12 01:28:45;;;;;;;22.05;6.00;;;12.40;97.70;;;;;;5011618;28;20108;-48
2022/06/12 01:31:30;;;;;;;17.02;6.18;;;12.40;97.70;;;;;;5011412;28;20244;-54
2022/06/12 01:34:21;;;;;;;13.73;5.93;;;12.40;97.70;;;;;;5011564;28;20025;-49
2022/06/12 01:37:18;;;;;;;17.30;6.30;;;12.40;97.70;;;;;;4997784;28;20022;-44
2022/06/12 01:39:52;;;;;;;15.32;5.38;;;12.40;97.60;;;;;;5010789;28;20026;-54
2022/06/12 01:42:33;;;;;;;21.73;6.00;;;12.40;97.50;;;;;;5011323;28;20030;-46
2022/06/12 01:45:05;;;;;;;16.25;5.80;;;12.40;97.50;;;;;;5011224;28;20029;-45
2022/06/12 01:47:58;;;;;;;15.10;6.05;;;12.40;97.30;;;;;;5011376;28;20025;-45
2022/06/12 01:50:56;;;;;;;15.15;5.63;;;12.30;97.20;;;;;;4995856;28;20030;-51
2022/06/12 01:53:46;;;;;;;12.00;5.57;;;12.20;97.10;;;;;;5011133;28;20026;-52
2022/06/12 01:56:35;;;;;;;13.27;5.82;;;12.20;97.10;;;;;;5009901;28;20275;-50
2022/06/12 01:59:33;;;;;;;14.15;5.75;;;12.20;97.10;;;;;;5011103;28;20232;-54
2022/06/12 02:02:09;;;;;;;11.50;5.25;;;12.20;97.10;;;;;;5011190;28;20556;-52
2022/06/12 02:05:11;;;;;;;16.27;5.70;;;12.10;97.00;;;;;;5011425;28;20088;-49
2022/06/12 02:07:56;;;;;;;11.35;5.97;;;12.10;97.10;;;;;;5010484;28;20093;-44
2022/06/12 02:10:30;;;;;;;12.70;5.05;;;12.00;97.10;;;;;;5011204;28;20026;-50
2022/06/12 02:13:29;;;;;;;14.35;5.88;;;12.00;97.00;;;;;;5015156;28;20018;-45
2022/06/12 02:16:24;;;;;;;14.48;5.50;;;12.00;97.20;;;;;;5013757;28;20038;-51
2022/06/12 02:18:57;;;;;;;17.70;5.65;;;11.90;97.50;;;;;;5013195;28;20077;-45
2022/06/12 02:21:42;;;;;;;15.88;5.60;;;11.90;97.50;;;;;;5014847;28;20060;-49
2022/06/12 02:24:48;;;;;;;12.93;6.00;;;11.90;97.40;;;;;;5014816;28;20038;-52
2022/06/12 02:27:23;;;;;;;11.73;5.60;;;11.90;97.40;;;;;;4966615;28;20035;-44
2022/06/12 02:29:56;;;;;;;18.40;5.88;;;11.90;97.40;;;;;;5013549;28;20029;-44
2022/06/12 02:32:36;;;;;;;14.02;5.63;;;11.90;97.40;;;;;;5014762;28;20033;-46
2022/06/12 02:35:26;;;;;;;10.85;5.03;;;11.80;97.50;;;;;;5014095;28;20619;-44
2022/06/12 02:38:06;;;;;;;11.60;4.90;;;11.80;97.50;;;;;;5014548;28;20457;-51
2022/06/12 02:40:41;;;;;;;10.77;4.60;;;11.80;97.50;;;;;;5014585;28;20018;-52
2022/06/12 02:43:25;;;;;;;14.18;5.40;;;11.80;97.20;;;;;;5014610;28;20052;-51
2022/06/12 02:45:56;;;;;;;13.65;4.75;;;11.70;97.10;;;;;;5014646;28;20040;-45
2022/06/12 02:48:23;;;;;;;14.13;5.15;;;11.70;97.10;;;;;;5014329;28;20049;-46
2022/06/12 02:51:07;;;;;;;15.48;5.50;;;11.70;97.30;;;;;;5014490;28;20503;-50
2022/06/12 02:53:50;;;;;;;12.45;5.13;;;11.70;97.50;;;;;;5014480;28;20033;-52
2022/06/12 02:56:41;;;;;;;11.05;4.88;;;11.70;97.40;;;;;;5014220;28;20029;-49
2022/06/12 02:59:21;;;;;;;11.95;4.45;;;11.70;97.20;;;;;;5012015;28;20030;-51
2022/06/12 03:02:05;;;;;;;10.55;4.13;;;11.60;97.00;;;;;;5014277;28;20085;-47
2022/06/12 03:04:43;;;;;;;12.02;3.97;;;11.60;96.90;;;;;;5001297;28;20046;-48
2022/06/12 03:07:10;;;;;;;9.77;4.20;;;11.60;96.90;;;;;;5013811;28;20089;-46
2022/06/12 03:09:36;;;;;;;10.45;3.92;;;11.50;96.90;;;;;;5014199;28;20018;-52
2022/06/12 03:12:03;;;;;;;11.82;3.72;;;11.50;96.90;;;;;;5013846;28;20085;-47
2022/06/12 03:14:29;;;;;;;10.18;3.75;;;11.50;97.00;;;;;;5013936;28;20046;-45
2022/06/12 03:16:55;;;;;;;7.78;3.50;;;11.40;96.80;;;;;;5013712;28;21730;-49
2022/06/12 03:19:23;;;;;;;8.13;3.70;;;11.30;96.90;;;;;;5013094;28;20392;-45
2022/06/12 03:21:55;;;;;;;9.48;3.67;;;11.30;97.00;;;;;;5013039;28;20030;-45
2022/06/12 03:24:36;;;;;;;7.97;3.65;;;11.20;96.80;;;;;;5013445;28;20129;-51
2022/06/12 03:27:08;;;;;;;8.77;3.50;;;11.20;96.80;;;;;;5013647;28;20097;-46
2022/06/12 03:29:56;;;;;;;6.88;3.40;;;11.20;96.70;;;;;;5013534;28;20057;-50
2022/06/12 03:32:44;;;;;;;8.70;3.55;;;11.10;96.90;;;;;;5005286;28;20026;-52
2022/06/12 03:35:33;;;;;;;9.52;3.60;;;11.10;96.90;;;;;;5013393;28;20104;-47
2022/06/12 03:38:07;;;;;;;;;;;11.00;97.00;;;;;;5013945;28;20049;-49
2022/06/12 03:40:58;;;;;;;7.60;3.58;;;11.00;97.00;;;;;;5013322;28;19905;-44
2022/06/12 03:43:23;;;;;;;12.75;4.68;;;11.00;97.20;;;;;;5013090;28;20041;-51
2022/06/12 03:46:01;;;;;;;13.43;4.57;;;11.00;97.40;;;;;;5013439;28;20014;-50
2022/06/12 03:48:38;;;;;;;10.80;4.05;;;11.00;98.00;;;;;;5013406;28;20301;-54
2022/06/12 03:51:22;;;;;;;11.52;4.40;;;11.00;97.80;;;;;;5009553;28;20041;-47
2022/06/12 03:53:59;;;;;;;10.90;3.95;;;11.10;97.90;;;;;;5013029;28;20112;-53
2022/06/12 03:59:21;;;;;;;8.68;3.80;;;11.10;97.30;;;;;;5013285;28;20037;-52
2022/06/12 04:01:47;;;;;;;10.32;3.60;;;11.10;97.10;;;;;;5012837;28;20549;-46
2022/06/12 04:04:15;;;;;;;11.48;4.68;;;11.00;97.00;;;;;;5012867;28;20046;-47
2022/06/12 04:06:42;;;;;;;10.98;4.90;;;11.00;97.30;;;;;;5012974;28;20038;-50
2022/06/12 04:09:16;;;;;;;11.48;4.88;;;11.00;97.60;;;;;;5013302;28;20029;-52
2022/06/12 04:11:46;;;;;;;10.38;4.40;;;11.00;97.70;;;;;;5013123;28;20018;-53
2022/06/12 04:14:15;;;;;;;13.98;4.97;;;11.00;97.80;;;;;;5012931;28;20030;-43
2022/06/12 04:16:48;;;;;;;10.55;4.20;;;11.00;97.70;;;;;;5012440;28;20698;-46
2022/06/12 04:19:23;;;;;;;10.43;4.20;;;11.00;97.80;;;;;;5012794;28;20374;-54
2022/06/12 04:21:54;;;;;;;8.95;4.00;;;10.90;97.90;;;;;;5012670;28;20021;-50
2022/06/12 04:24:29;;;;;;;16.98;5.38;;;11.00;97.90;;;;;;5012715;28;20041;-51
2022/06/12 04:27:21;;;;;;;12.63;4.72;;;11.00;98.00;;;;;;5012534;28;20046;-56
2022/06/12 04:30:00;;;;;;;13.50;5.13;;;10.90;98.00;;;;;;5011112;28;20354;-46
2022/06/12 04:32:28;;;;;;;17.75;5.28;;;11.00;98.10;;;;;;5011832;28;20018;-48
2022/06/12 04:34:53;;;;;;;13.20;4.72;;;11.00;98.40;;;;;;5012322;28;20025;-58
2022/06/12 04:37:21;;;;;;;11.95;4.57;;;11.10;98.50;;;;;;5012433;28;20083;-43
2022/06/12 04:39:48;;;;;;;13.75;4.88;;;11.20;98.50;;;;;;5012520;28;20533;-54
2022/06/12 04:42:16;;;;;;;14.57;5.10;;;11.20;98.60;;;;;;5012210;28;20009;-54
2022/06/12 04:44:43;;;;;;;13.85;5.00;;;11.30;98.60;;;;;;5012195;28;20033;-61
2022/06/12 04:47:13;;;;;;;12.07;4.82;;;11.30;98.50;;;;;;5012135;28;20472;-52
2022/06/12 04:49:39;;;;;;;11.80;4.55;;;11.40;98.50;;;;;;5011954;28;20117;-43
2022/06/12 04:52:07;;;;;;;11.35;3.65;;;11.60;98.50;;;;;;5012088;28;20105;-48
2022/06/12 04:54:35;;;;;;;10.73;4.20;;;11.80;98.90;;;;;;5012101;28;20461;-45
2022/06/12 04:57:02;;;;;;;12.73;4.13;;;12.40;98.30;;;;;;5011989;28;20109;-43
2022/06/12 04:59:28;;;;;;;10.82;3.80;;;13.30;96.70;;;;;;5012134;28;20109;-49
2022/06/12 05:01:54;;;;;;;12.68;3.75;;;14.10;94.60;;;;;;5012070;28;20022;-47
2022/06/12 05:04:21;;;;;;;10.52;3.70;;;14.80;92.40;;;;;;5011668;28;20111;-55
2022/06/12 05:06:49;;;;;;;11.48;3.10;;;15.30;91.70;;;;;;5011650;28;20042;-52
2022/06/12 05:09:16;;;;;;;9.88;3.17;;;15.90;90.70;;;;;;5011819;28;20032;-54
2022/06/12 05:11:43;;;;;;;11.45;3.40;;;16.30;89.10;;;;;;5011785;28;20029;-56
2022/06/12 05:14:09;;;;;;;11.77;3.28;;;16.30;87.40;;;;;;5011155;28;20515;-45
2022/06/12 05:16:40;;;;;;;8.63;3.00;;;16.30;87.50;;;;;;5011453;28;20018;-53
2022/06/12 05:19:10;;;;;;;14.02;3.78;;;16.20;87.60;;;;;;5011628;28;20037;-58
2022/06/12 05:21:36;;;;;;;10.35;3.95;;;16.00;88.00;;;;;;5011477;28;20029;-49
2022/06/12 05:24:02;;;;;;;10.00;3.58;;;15.60;89.00;;;;;;5011496;28;20033;-56
2022/06/12 05:26:28;;;;;;;13.43;3.72;;;15.20;90.60;;;;;;5011568;28;20030;-46
2022/06/12 05:28:55;;;;;;;14.10;4.15;;;15.00;91.00;;;;;;5011519;28;20037;-48
2022/06/12 05:31:21;;;;;;;12.88;4.05;;;14.80;91.70;;;;;;5011392;28;20438;-59
2022/06/12 05:33:47;;;;;;;9.98;4.25;;;14.50;92.10;;;;;;5011364;28;20022;-57
2022/06/12 05:36:15;;;;;;;12.23;4.10;;;14.50;92.40;;;;;;5011104;28;20033;-44
2022/06/12 05:38:42;;;;;;;11.18;4.00;;;14.50;93.00;;;;;;5009468;28;20369;-52
2022/06/12 05:41:09;;;;;;;9.63;3.70;;;14.70;92.80;;;;;;5011380;28;20072;-45
2022/06/12 05:43:35;;;;;;;14.88;4.65;;;14.80;92.50;;;;;;5009223;28;20034;-58
2022/06/12 05:46:01;;;;;;;14.30;4.00;;;15.10;92.20;;;;;;5010314;28;20026;-54
2022/06/12 05:48:26;;;;;;;12.50;3.65;;;15.40;91.20;;;;;;5009474;28;20060;-53
2022/06/12 05:50:57;;;;;;;13.82;4.25;;;15.90;91.00;;;;;;4993264;28;20398;-53
2022/06/12 05:53:25;;;;;;;10.50;3.60;;;16.40;90.00;;;;;;4999340;28;20495;-47
2022/06/12 05:55:51;;;;;;;11.10;3.78;;;17.10;88.10;;;;;;5002850;28;20030;-52
2022/06/12 05:58:18;;;;;;;12.60;3.75;;;17.50;81.30;;;;;;5011191;28;20081;-51
2022/06/12 06:00:45;;;;;;;10.85;3.22;;;18.00;80.50;;;;;;5007624;28;20038;-44
2022/06/12 06:03:12;;;;;;;9.90;3.00;;;18.40;80.00;;;;;;5011014;28;20086;-58
2022/06/12 06:05:39;;;;;;;13.05;3.70;;;18.90;80.90;;;;;;5010822;28;20053;-48
2022/06/12 06:08:06;;;;;;;8.77;3.13;;;19.50;78.80;;;;;;5011162;28;20026;-53
2022/06/12 06:10:32;;;;;;;11.40;3.65;;;19.80;76.70;;;;;;5011155;28;20123;-57
2022/06/12 06:12:59;;;;;;;10.25;2.97;;;20.60;74.10;;;;;;5010816;28;20026;-53
2022/06/12 06:15:24;;;;;;;8.35;3.10;;;21.30;70.50;;;;;;5011143;28;20113;-55
2022/06/12 06:17:52;;;;;;;12.75;3.50;;;21.20;70.20;;;;;;5010809;28;20124;-54
2022/06/12 06:20:24;;;;;;;5.70;2.35;;;21.30;68.40;;;;;;5011277;28;20026;-55
2022/06/12 06:22:51;;;;;;;10.30;3.45;;;21.30;69.50;;;;;;5010920;28;20493;-49
2022/06/12 06:25:17;;;;;;;10.98;3.25;;;21.30;68.30;;;;;;5011086;28;20068;-60
2022/06/12 06:27:43;;;;;;;9.07;3.20;;;21.50;67.00;;;;;;5010916;28;20058;-48
2022/06/12 06:30:09;;;;;;;9.02;2.90;;;21.60;70.10;;;;;;5011332;28;20057;-56
2022/06/12 06:32:35;;;;;;;9.77;3.40;;;21.60;67.00;;;;;;5009860;28;20091;-54
2022/06/12 06:35:01;;;;;;;9.30;3.13;;;21.70;67.10;;;;;;5010977;28;20022;-50
2022/06/12 06:37:27;;;;;;;9.90;2.70;;;21.70;69.40;;;;;;5010644;28;20060;-41
2022/06/12 06:39:53;;;;;;;8.60;2.75;;;21.90;69.50;;;;;;5010870;28;20059;-41
2022/06/12 06:42:19;;;;;;;9.25;3.00;;;22.20;69.50;;;;;;5010785;28;20030;-45
2022/06/12 06:47:29;;;;;;;12.10;3.38;;;23.10;63.80;;;;;;5011170;28;20088;-44
2022/06/12 06:49:54;;;;;;;9.10;2.92;;;23.20;64.90;;;;;;5010662;28;20045;-43
2022/06/12 06:52:21;;;;;;;8.07;3.05;;;23.20;64.00;;;;;;5010774;28;20030;-49
2022/06/12 06:54:46;;;;;;;12.07;3.50;;;23.40;64.20;;;;;;5010641;28;20487;-58
2022/06/12 06:57:12;;;;;;;8.80;3.10;;;23.70;63.60;;;;;;5013051;28;20108;-58
2022/06/12 06:59:39;;;;;;;8.27;3.03;;;23.80;60.10;;;;;;5014298;28;20033;-59
2022/06/12 07:02:07;;;;;;;9.40;3.15;;;24.00;62.70;;;;;;5014401;28;20148;-58
2022/06/12 07:04:32;;;;;;;10.60;3.60;;;24.60;59.10;;;;;;5014121;28;20365;-55
2022/06/12 07:06:58;;;;;;;8.43;2.80;;;24.90;57.00;;;;;;5013882;28;20049;-58
2022/06/12 07:09:24;;;;;;;7.25;2.80;;;25.20;58.30;;;;;;5014017;28;20401;-61
2022/06/12 07:11:50;;;;;;;11.43;3.28;;;25.20;55.70;;;;;;5014351;28;20421;-55
2022/06/12 07:14:16;;;;;;;10.68;2.80;;;25.10;54.10;;;;;;5014088;28;20446;-49
2022/06/12 07:16:42;;;;;;;8.93;2.65;;;25.10;56.00;;;;;;5013993;28;20028;-43
2022/06/12 07:19:08;;;;;;;7.88;2.78;;;25.20;59.10;;;;;;5013653;28;20026;-52
2022/06/12 07:21:34;;;;;;;9.95;2.83;;;25.40;56.50;;;;;;5013714;28;20481;-43
2022/06/12 07:24:01;;;;;;;9.45;2.75;;;25.70;55.60;;;;;;5013373;28;20041;-48
2022/06/12 07:26:39;;;;;;;8.32;2.83;;;26.10;55.20;;;;;;5013687;28;20050;-58
2022/06/12 07:29:04;;;;;;;8.53;2.73;;;26.50;55.30;;;;;;5013371;28;20061;-52
2022/06/12 07:31:32;;;;;;;8.88;2.17;;;27.00;53.60;;;;;;5012844;28;20056;-47
2022/06/12 07:33:58;;;;;;;7.38;2.45;;;27.30;51.20;;;;;;5009894;28;20502;-57
2022/06/12 07:36:25;;;;;;;10.35;2.92;;;27.70;49.70;;;;;;5008960;28;20105;-50
2022/06/12 07:38:51;;;;;;;9.90;2.38;;;27.90;49.50;;;;;;5013373;28;20030;-46
2022/06/12 07:41:18;;;;;;;8.35;2.40;;;27.90;48.00;;;;;;5013681;28;20022;-58
2022/06/12 07:43:45;;;;;;;9.18;2.33;;;28.10;48.50;;;;;;5013491;28;20037;-52
2022/06/12 07:46:14;;;;;;;6.38;2.30;;;27.90;48.10;;;;;;5005813;28;20057;-53
2022/06/12 07:48:40;;;;;;;6.85;2.08;;;27.90;49.20;;;;;;5013336;28;20022;-52
2022/06/12 07:51:10;;;;;;;7.00;2.63;;;27.70;45.30;;;;;;5013110;28;20386;-59
2022/06/12 07:53:37;;;;;;;5.90;2.22;;;27.80;51.90;;;;;;5013148;28;20024;-50
2022/06/12 07:56:04;;;;;;;9.25;2.58;;;28.00;53.90;;;;;;5013111;28;20076;-49
2022/06/12 07:58:31;;;;;;;10.32;3.13;;;28.20;48.40;;;;;;5012780;28;20100;-43
2022/06/12 08:01:00;;;;;;;10.02;2.45;;;28.30;44.60;;;;;;5013127;28;20022;-47
2022/06/12 08:03:27;;;;;;;7.13;2.50;;;28.70;45.10;;;;;;5012941;28;20038;-50
2022/06/12 08:05:52;;;;;;;8.30;2.83;;;28.90;45.10;;;;;;5012670;28;20045;-43
2022/06/12 08:08:18;;;;;;;9.73;2.72;;;29.00;44.50;;;;;;5012426;28;20042;-51
2022/06/12 08:10:44;;;;;;;7.35;2.00;;;28.90;44.40;;;;;;5012809;28;20036;-52
2022/06/12 08:13:11;;;;;;;8.50;2.40;;;28.50;42.40;;;;;;5013053;28;20121;-52
2022/06/12 08:15:39;;;;;;;7.55;2.20;;;28.80;43.90;;;;;;5012942;28;20022;-57
2022/06/12 08:18:05;;;;;;;6.97;2.15;;;29.10;42.90;;;;;;5012634;28;20393;-53
2022/06/12 08:20:35;;;;;;;8.20;2.10;;;29.00;44.10;;;;;;5012894;28;20030;-51
2022/06/12 08:23:26;;;;;;;6.03;2.05;;;29.40;41.60;;;;;;5012623;28;20034;-44
2022/06/12 08:25:54;;;;;;;6.88;2.20;;;29.70;44.00;;;;;;5012832;28;20053;-49
2022/06/12 08:28:20;;;;;;;8.25;2.17;;;29.80;39.60;;;;;;5012556;28;20554;-55
2022/06/12 08:30:46;;;;;;;10.13;2.70;;;29.80;40.60;;;;;;5012753;28;20034;-59
2022/06/12 08:33:11;;;;;;;9.02;2.30;;;29.40;40.40;;;;;;5011490;28;20614;-44
2022/06/12 08:35:39;;;;;;;7.07;2.28;;;29.50;42.60;;;;;;5011810;28;20029;-53
2022/06/12 08:38:05;;;;;;;8.63;2.37;;;29.50;44.40;;;;;;5011348;28;20034;-49
2022/06/12 08:40:44;;;;;;;9.13;2.50;;;29.50;43.80;;;;;;5012384;28;20041;-45
2022/06/12 08:43:09;;;;;;;7.20;2.22;;;29.60;41.30;;;;;;5007462;28;20033;-54
2022/06/12 08:45:57;;;;;;;9.55;2.75;;;29.90;41.50;;;;;;5009211;28;20180;-43
2022/06/12 08:49:14;;;;;;;8.60;2.53;;;30.00;42.40;;;;;;4995060;28;20022;-50
2022/06/12 08:51:45;;;;;;;9.13;2.40;;;29.50;40.80;;;;;;4980250;28;20040;-53
2022/06/12 08:54:15;;;;;;;9.93;2.38;;;29.30;45.70;;;;;;5002274;28;20842;-45
2022/06/12 08:57:02;;;;;;;8.75;2.72;;;29.40;42.90;;;;;;4997700;28;20034;-53
2022/06/12 08:59:52;;;;;;;9.23;2.40;;;29.10;38.50;;;;;;5002931;28;20089;-44
2022/06/12 09:02:31;;;;;;;7.85;2.70;;;29.20;43.70;;;;;;4994276;28;20550;-50
2022/06/12 09:04:58;;;;;;;7.20;2.40;;;29.50;45.40;;;;;;4999588;28;20038;-45
2022/06/12 09:07:54;;;;;;;10.07;2.97;;;29.80;41.50;;;;;;5005050;28;20050;-58
2022/06/12 09:10:52;;;;;;;6.85;2.40;;;29.60;42.00;;;;;;5007300;28;20037;-58
2022/06/12 09:13:56;;;;;;;8.15;2.40;;;29.80;40.90;;;;;;5007563;28;20030;-45
2022/06/12 09:16:32;;;;;;;8.25;2.60;;;29.90;44.50;;;;;;5004513;28;20477;-44
2022/06/12 09:18:57;;;;;;;9.43;3.28;;;30.10;44.10;;;;;;4998878;28;20046;-49
2022/06/12 09:21:37;;;;;;;9.18;2.70;;;30.40;42.90;;;;;;4994750;28;20473;-55
2022/06/12 09:24:20;;;;;;;6.32;2.50;;;30.30;40.50;;;;;;5009278;28;20092;-50
2022/06/12 09:26:48;;;;;;;8.65;2.20;;;30.00;39.20;;;;;;5008698;28;20053;-45
2022/06/12 09:29:23;;;;;;;7.90;2.70;;;29.90;41.50;;;;;;5010029;28;20079;-48
2022/06/12 09:32:01;;;;;;;9.38;2.70;;;29.70;42.80;;;;;;5004794;28;20037;-53
2022/06/12 09:35:10;;;;;;;7.75;2.38;;;29.60;40.80;;;;;;5008616;28;20026;-50
2022/06/12 09:41:04;;;;;;;8.10;2.30;;;29.90;42.40;;;;;;5005739;28;20111;-47
2022/06/12 09:43:50;;;;;;;9.40;2.20;;;30.00;40.40;;;;;;4997750;28;20045;-47
2022/06/12 09:46:36;;;;;;;8.02;2.22;;;29.90;44.40;;;;;;5004270;28;20037;-48
2022/06/12 09:49:02;;;;;;;8.07;2.47;;;29.40;40.00;;;;;;5010382;28;20022;-50
2022/06/12 09:51:59;;;;;;;8.02;2.22;;;28.50;44.80;;;;;;5009571;28;20030;-50
2022/06/12 09:54:45;;;;;;;8.23;2.22;;;28.50;43.20;;;;;;5010214;28;20026;-48
2022/06/12 09:57:23;;;;;;;5.40;1.77;;;28.70;41.70;;;;;;5010708;28;20076;-48
2022/06/12 10:00:11;;;;;;;6.95;2.17;;;28.10;37.80;;;;;;5007846;28;20045;-53
2022/06/12 10:02:52;;;;;;;6.72;2.13;;;27.20;44.80;;;;;;5009776;28;20037;-50
2022/06/12 10:05:36;;;;;;;6.25;1.98;;;26.30;45.70;;;;;;5010396;28;20108;-54
2022/06/12 10:08:08;;;;;;;10.02;2.70;;;26.10;54.80;;;;;;5008212;28;20142;-50
2022/06/12 10:10:42;;;;;;;8.52;2.30;;;26.70;48.00;;;;;;5010057;28;20022;-55
2022/06/12 10:13:13;;;;;;;9.18;2.67;;;27.60;47.40;;;;;;5008558;28;20105;-56
2022/06/12 10:15:43;;;;;;;9.35;2.13;;;28.10;43.00;;;;;;5005756;28;20379;-56
2022/06/12 10:18:36;;;;;;;6.88;2.25;;;27.70;43.30;;;;;;5012440;28;20468;-44
2022/06/12 10:21:07;;;;;;;5.32;2.13;;;28.30;49.30;;;;;;5003009;28;20040;-46
2022/06/12 10:23:33;;;;;;;5.15;1.92;;;27.90;42.20;;;;;;5008533;28;20034;-47
2022/06/12 10:26:01;;;;;;;8.60;2.40;;;27.30;43.20;;;;;;5010238;28;20156;-59
2022/06/12 10:28:30;;;;;;;7.97;2.13;;;26.50;42.70;;;;;;5008335;28;20030;-52
2022/06/12 10:31:10;;;;;;;7.10;2.30;;;25.80;44.10;;;;;;5005873;28;20492;-55
2022/06/12 10:33:43;;;;;;;8.90;2.22;;;25.40;49.20;;;;;;5013942;28;20025;-59
2022/06/12 10:36:17;;;;;;;8.80;2.40;;;26.10;53.40;;;;;;5014676;28;20026;-44
2022/06/12 10:38:43;;;;;;;9.73;1.80;;;26.80;46.60;;;;;;5011355;28;20473;-50
2022/06/12 10:41:30;;;;;;;9.85;2.30;;;27.60;47.70;;;;;;5000455;28;20030;-43
2022/06/12 10:43:57;;;;;;;11.40;2.63;;;28.00;42.50;;;;;;5011212;28;20078;-51
2022/06/12 10:46:31;;;;;;;10.63;2.55;;;28.20;46.90;;;;;;5010115;28;20065;-51
2022/06/12 10:49:03;;;;;;;7.00;2.40;;;28.60;43.10;;;;;;5006846;28;20444;-51
2022/06/12 10:51:29;;;;;;;9.35;2.10;;;28.60;42.30;;;;;;5011289;28;20018;-47
2022/06/12 10:54:00;;;;;;;7.20;1.95;;;28.60;44.40;;;;;;5007727;28;20044;-48
2022/06/12 10:56:53;;;;;;;6.95;1.83;;;28.60;44.40;;;;;;5011918;28;20385;-48
2022/06/12 10:59:42;;;;;;;5.60;1.67;;;28.00;44.90;;;;;;5003126;28;20404;-55
2022/06/12 11:02:19;;;;;;;6.45;2.05;;;27.30;41.60;;;;;;5009204;28;20492;-50
2022/06/12 11:04:57;;;;;;;6.55;2.17;;;26.70;44.40;;;;;;5010638;28;20038;-61
2022/06/12 11:07:29;;;;;;;;;;;26.20;46.10;;;;;;5013138;28;20046;-50
2022/06/12 11:10:06;;;;;;;8.07;2.25;;;26.30;52.00;;;;;;5012994;28;19919;-50
2022/06/12 11:12:52;;;;;;;6.57;1.92;;;26.10;45.20;;;;;;5012935;28;20045;-45
2022/06/12 11:15:39;;;;;;;7.57;2.05;;;25.90;47.30;;;;;;5012454;28;20030;-53
2022/06/12 11:18:29;;;;;;;8.13;2.38;;;26.00;47.10;;;;;;5008895;28;20376;-51
2022/06/12 11:21:14;;;;;;;7.90;2.10;;;26.40;51.80;;;;;;5013147;28;20040;-54
2022/06/12 11:23:54;;;;;;;8.52;2.00;;;26.60;46.70;;;;;;5012737;28;20069;-47
2022/06/12 11:26:32;;;;;;;8.80;2.30;;;26.40;42.90;;;;;;5013619;28;20060;-56
2022/06/12 11:29:08;;;;;;;7.28;2.33;;;26.70;50.90;;;;;;5013455;28;20056;-57
2022/06/12 11:31:45;;;;;;;10.65;2.70;;;27.30;51.90;;;;;;5013675;28;20481;-56
2022/06/12 11:34:37;;;;;;;10.23;2.50;;;27.50;43.60;;;;;;5004579;28;20397;-50
2022/06/12 11:37:37;;;;;;;12.45;2.90;;;26.70;45.40;;;;;;5013435;28;20025;-54
2022/06/12 11:40:25;;;;;;;8.85;3.13;;;25.60;50.20;;;;;;5012924;28;20018;-53
2022/06/12 11:43:05;;;;;;;11.85;2.88;;;24.80;53.60;;;;;;5005847;28;20121;-60
2022/06/12 11:45:41;;;;;;;13.02;2.60;;;24.10;55.10;;;;;;5013219;28;20493;-50
2022/06/12 11:48:22;;;;;;;9.02;2.97;;;23.70;54.60;;;;;;5013337;28;20030;-47
2022/06/12 11:51:17;;;;;;;8.48;2.63;;;23.20;51.60;;;;;;5013126;28;20022;-55
2022/06/12 11:53:46;;;;;;;8.98;2.90;;;23.10;59.00;;;;;;5013212;28;20025;-59
2022/06/12 11:56:30;;;;;;;11.25;2.90;;;23.20;60.70;;;;;;5003781;28;20099;-46
2022/06/12 11:59:16;;;;;;;12.32;3.22;;;23.60;66.10;;;;;;5011922;28;20034;-61
2022/06/12 12:02:04;;;;;;;11.25;2.85;;;24.60;60.80;;;;;;5013295;28;20034;-51
2022/06/12 12:04:35;;;;;;;10.27;2.92;;;24.60;55.80;;;;;;5013064;28;20026;-56
2022/06/12 12:07:27;;;;;;;8.20;2.88;;;23.90;54.90;;;;;;5012909;28;20058;-56
2022/06/12 12:10:15;;;;;;;12.77;3.85;;;23.60;61.50;;;;;;5013161;28;20097;-55
2022/06/12 12:12:46;;;;;;;12.52;3.20;;;23.10;62.00;;;;;;5012939;28;20432;-44
2022/06/12 12:15:27;;;;;;;13.55;3.70;;;23.00;61.00;;;;;;5013104;28;20447;-54
2022/06/12 12:17:55;;;;;;;14.52;3.00;;;22.90;62.40;;;;;;5012763;28;20026;-56
2022/06/12 12:20:37;;;;;;;12.70;3.55;;;22.80;65.30;;;;;;5012942;28;20068;-44
2022/06/12 12:23:05;;;;;;;10.00;3.03;;;22.90;61.30;;;;;;5012620;28;20088;-44
2022/06/12 12:25:45;;;;;;;8.82;3.10;;;23.40;63.20;;;;;;5012856;28;20029;-44
2022/06/12 12:28:45;;;;;;;10.77;3.05;;;23.70;60.00;;;;;;5011012;28;20491;-47
2022/06/12 12:31:14;;;;;;;11.38;3.00;;;23.70;63.00;;;;;;5012515;28;20432;-55
2022/06/12 12:33:42;;;;;;;10.90;2.67;;;23.00;61.50;;;;;;5012608;28;20113;-53
2022/06/12 12:41:55;;;;;;;8.93;2.95;;;22.90;62.80;;;;;;5012598;28;20099;-51
2022/06/12 12:44:33;;;;;;;9.27;2.50;;;23.70;64.10;;;;;;5012484;28;20038;-56
2022/06/12 12:47:01;;;;;;;8.75;2.63;;;24.20;63.30;;;;;;5012248;28;20533;-59
2022/06/12 12:49:26;;;;;;;10.90;2.70;;;24.40;60.90;;;;;;5012213;28;20389;-48
2022/06/12 12:52:21;;;;;;;15.07;3.63;;;24.30;58.50;;;;;;5012375;28;20022;-56
2022/06/12 12:54:52;;;;;;;12.18;3.03;;;24.20;57.10;;;;;;5011545;28;20022;-52
2022/06/12 12:57:33;;;;;;;7.55;2.30;;;23.90;58.10;;;;;;5011958;28;20144;-56
2022/06/12 13:00:00;;;;;;;11.93;3.10;;;23.50;57.00;;;;;;5012270;28;20034;-55
2022/06/12 13:02:32;;;;;;;10.68;3.00;;;23.10;59.00;;;;;;5012184;28;20176;-56
2022/06/12 13:05:01;;;;;;;7.90;2.72;;;22.80;61.80;;;;;;5012173;28;20400;-54
2022/06/12 13:08:02;;;;;;;10.35;2.83;;;22.70;60.00;;;;;;5011899;28;20046;-59
2022/06/12 13:10:46;;;;;;;9.73;2.70;;;22.60;62.50;;;;;;4990176;28;20728;-53
2022/06/12 13:13:24;;;;;;;10.45;2.90;;;22.70;62.40;;;;;;4998705;28;20505;-56
2022/06/12 13:16:00;;;;;;;9.88;2.50;;;22.90;62.70;;;;;;5011774;28;20034;-57
2022/06/12 13:18:46;;;;;;;10.80;2.90;;;23.10;63.80;;;;;;5011873;28;20024;-55
2022/06/12 13:21:17;;;;;;;10.80;3.00;;;23.50;63.40;;;;;;5011091;28;20421;-51
2022/06/12 13:24:09;;;;;;;9.73;2.97;;;23.60;61.20;;;;;;5007334;28;20030;-48
2022/06/12 13:26:39;;;;;;;10.23;3.20;;;23.50;60.90;;;;;;5006873;28;20106;-46
2022/06/12 13:29:05;;;;;;;11.10;3.30;;;23.40;62.80;;;;;;5008984;28;20026;-55
2022/06/12 13:31:34;;;;;;;9.02;3.17;;;23.20;61.50;;;;;;5006649;28;20497;-58
2022/06/12 13:34:02;;;;;;;12.23;3.22;;;23.30;61.30;;;;;;5008254;28;20106;-58
2022/06/12 13:36:33;;;;;;;13.05;3.60;;;23.30;64.60;;;;;;5009257;28;20017;-48